createdAt,value
2022-08-16T10:36:37.804Z,99701.11
2022-08-16T10:40:03.414Z,99709.89
2022-08-16T10:42:30.631Z,99715.11
2022-08-16T10:44:57.575Z,99717.20
2022-08-16T10:47:24.626Z,99717.88
2022-08-16T10:49:52.502Z,99710.96
2022-08-16T10:52:20.223Z,99702.73
2022-08-16T10:57:35.008Z,99683.88
2022-08-16T11:00:04.970Z,99675.77
2022-08-16T11:02:58.462Z,99676.00
2022-08-16T11:05:19.175Z,99679.81
2022-08-16T11:07:51.992Z,99689.41
2022-08-16T11:16:01.213Z,99696.44
2022-08-16T11:18:48.967Z,99696.03
2022-08-16T11:21:28.697Z,99685.83
2022-08-16T11:23:59.610Z,99682.81
2022-08-16T11:26:26.884Z,99687.79
2022-08-16T11:31:45.448Z,99703.78
2022-08-16T11:34:21.041Z,99713.02
2022-08-16T11:36:53.787Z,99722.00
2022-08-16T11:39:27.721Z,99733.56
2022-08-16T11:41:55.783Z,99736.34
2022-08-16T11:44:52.744Z,99735.60
2022-08-16T11:47:09.851Z,99739.77
2022-08-16T11:49:36.799Z,99741.40
2022-08-16T11:52:03.971Z,99746.27
2022-08-16T11:54:36.336Z,99744.98
2022-08-16T11:57:08.900Z,99740.09
2022-08-16T11:59:40.000Z,99741.44
2022-08-16T12:02:32.054Z,99745.90
2022-08-16T12:04:54.763Z,99740.10
2022-08-16T12:07:23.608Z,99732.64
2022-08-16T12:09:53.218Z,99730.61
2022-08-16T12:12:21.207Z,99728.55
2022-08-16T12:14:59.205Z,99728.83
2022-08-16T12:17:31.471Z,99722.63
2022-08-16T12:20:00.867Z,99719.41
2022-08-16T12:22:29.496Z,99718.02
2022-08-16T12:24:56.733Z,99717.28
2022-08-16T12:27:25.377Z,99715.26
2022-08-16T12:29:53.702Z,99720.48
2022-08-16T12:32:38.039Z,99717.45
2022-08-16T12:35:12.214Z,99715.90
2022-08-16T12:37:41.508Z,99715.16
2022-08-16T12:40:23.940Z,99711.33
2022-08-16T12:42:54.793Z,99702.01
2022-08-16T12:45:28.673Z,99698.41
2022-08-16T12:48:33.929Z,99700.75
2022-08-16T12:51:13.623Z,99705.98
2022-08-16T12:53:50.006Z,99703.57
2022-08-16T12:56:18.861Z,99700.74
2022-08-16T12:58:51.536Z,99694.63
2022-08-16T13:01:26.400Z,99693.14
2022-08-16T13:04:08.589Z,99693.04
2022-08-16T13:06:41.294Z,99686.20
2022-08-16T13:09:22.443Z,99680.54
2022-08-16T13:12:00.246Z,99693.48
2022-08-16T13:14:32.132Z,99701.09
2022-08-16T13:17:02.124Z,99698.58
2022-08-16T13:19:44.219Z,99697.73
2022-08-16T13:22:18.649Z,99696.95
2022-08-16T13:24:47.549Z,99691.55
2022-08-16T13:27:15.231Z,99689.69
2022-08-16T13:29:44.021Z,99692.27
2022-08-16T13:32:39.313Z,99691.95
2022-08-16T13:34:58.379Z,99690.23
2022-08-16T13:37:28.095Z,99700.36
2022-08-16T13:39:55.628Z,99706.45
2022-08-16T13:42:23.155Z,99708.45
2022-08-16T13:44:56.325Z,99708.20
2022-08-16T13:47:30.020Z,99705.99
2022-08-16T13:49:57.373Z,99706.77
2022-08-16T13:52:25.289Z,99708.57
2022-08-16T13:55:01.541Z,99714.80
2022-08-16T13:57:53.419Z,99720.56
2022-08-16T14:00:19.498Z,99727.75
2022-08-16T14:02:48.307Z,99733.48
2022-08-16T14:05:22.028Z,99731.64
2022-08-16T14:07:52.568Z,99730.39
2022-08-16T14:10:20.071Z,99727.63
2022-08-16T14:12:48.146Z,99730.11
2022-08-16T14:15:16.134Z,99739.97
2022-08-16T14:18:15.563Z,99743.61
2022-08-16T14:20:30.227Z,99751.76
2022-08-16T14:22:57.247Z,99762.85
2022-08-16T14:25:24.507Z,99767.45
2022-08-16T14:27:54.354Z,99763.41
2022-08-16T14:30:22.200Z,99763.77
2022-08-16T14:32:49.726Z,99764.60
2022-08-16T14:35:36.791Z,99770.07
2022-08-16T14:38:11.096Z,99776.66
2022-08-16T14:40:47.157Z,99777.23
2022-08-16T14:43:19.641Z,99774.17
2022-08-16T14:45:47.314Z,99771.52
2022-08-16T14:48:24.648Z,99780.51
2022-08-16T14:50:53.090Z,99790.34
2022-08-16T14:53:20.033Z,99796.90
2022-08-16T14:55:48.482Z,99801.06
2022-08-16T14:58:19.580Z,99797.58
2022-08-16T15:00:50.405Z,99791.36
2022-08-16T15:03:18.268Z,99786.11
2022-08-16T15:05:45.219Z,99780.42
2022-08-16T15:08:12.170Z,99774.80
2022-08-16T15:10:42.879Z,99776.68
2022-08-16T15:13:13.240Z,99773.72
2022-08-16T15:15:42.234Z,99769.84
2022-08-16T15:18:12.057Z,99765.36
2022-08-16T15:20:39.818Z,99765.27
2022-08-16T15:23:08.536Z,99767.16
2022-08-16T15:25:41.200Z,99761.54
2022-08-16T15:28:23.559Z,99761.89
2022-08-16T15:31:00.349Z,99761.46
2022-08-16T15:33:28.051Z,99755.81
2022-08-16T15:35:55.448Z,99751.83
2022-08-16T15:38:54.968Z,99748.70
2022-08-16T15:41:27.194Z,99748.01
2022-08-16T15:44:04.786Z,99741.02
2022-08-16T15:46:54.768Z,99740.38
2022-08-16T15:49:25.112Z,99734.90
2022-08-16T15:52:03.061Z,99735.84
2022-08-16T15:54:32.714Z,99736.46
2022-08-16T15:57:11.438Z,99730.30
2022-08-16T15:59:48.956Z,99731.36
2022-08-16T16:02:29.625Z,99732.89
2022-08-16T16:05:04.363Z,99732.34
2022-08-16T16:07:33.183Z,99732.02
2022-08-16T16:10:01.891Z,99732.60
2022-08-16T16:12:53.402Z,99725.95
2022-08-16T16:15:17.888Z,99722.29
2022-08-16T16:17:51.236Z,99721.65
2022-08-16T16:20:20.858Z,99719.98
2022-08-16T16:22:50.050Z,99725.23
2022-08-16T16:25:17.622Z,99727.27
2022-08-16T16:27:45.245Z,99729.73
2022-08-16T16:30:33.403Z,99731.98
2022-08-16T16:33:00.924Z,99735.05
2022-08-16T16:35:28.978Z,99735.77
2022-08-16T16:38:00.023Z,99730.92
2022-08-16T16:40:32.226Z,99731.23
2022-08-16T16:43:00.446Z,99730.73
2022-08-16T16:45:34.597Z,99733.94
2022-08-16T16:48:11.888Z,99734.56
2022-08-16T16:50:44.706Z,99736.04
2022-08-16T16:53:17.640Z,99741.02
2022-08-16T16:55:47.684Z,99745.15
2022-08-16T16:58:40.604Z,99748.77
2022-08-16T17:01:10.750Z,99753.49
2022-08-16T17:03:38.634Z,99758.69
2022-08-16T17:06:09.242Z,99757.09
2022-08-16T17:08:40.854Z,99760.42
2022-08-16T17:11:09.810Z,99766.45
2022-08-16T17:13:37.375Z,99772.17
2022-08-16T17:16:05.153Z,99779.66
2022-08-16T17:19:16.953Z,99787.59
2022-08-16T17:21:20.138Z,99793.05
2022-08-16T17:23:59.133Z,99798.02
2022-08-16T17:26:30.998Z,99792.89
2022-08-16T17:29:02.632Z,99793.72
2022-08-16T17:31:43.279Z,99794.10
2022-08-16T17:34:30.919Z,99800.63
2022-08-16T17:37:05.040Z,99798.21
2022-08-16T17:39:54.842Z,99791.22
2022-08-16T17:42:26.020Z,99790.81
2022-08-16T17:44:54.554Z,99788.19
2022-08-16T17:47:22.473Z,99790.18
2022-08-16T17:49:49.513Z,99786.07
2022-08-16T17:52:17.238Z,99782.61
2022-08-16T17:54:44.788Z,99782.67
2022-08-16T17:57:12.972Z,99785.33
2022-08-16T17:59:41.487Z,99790.24
2022-08-16T18:02:42.250Z,99797.98
2022-08-16T18:04:56.160Z,99806.46
2022-08-16T18:07:23.518Z,99804.14
2022-08-16T18:09:50.575Z,99800.58
2022-08-16T18:12:50.855Z,99799.91
2022-08-16T18:15:14.041Z,99796.37
2022-08-16T18:17:42.932Z,99797.66
2022-08-16T18:20:40.500Z,99802.92
2022-08-16T18:23:10.143Z,99809.17
2022-08-16T18:25:43.414Z,99818.67
2022-08-16T18:28:11.581Z,99823.13
2022-08-16T18:30:38.976Z,99818.80
2022-08-16T18:33:05.993Z,99822.19
2022-08-16T18:35:33.299Z,99820.75
2022-08-16T18:38:00.305Z,99821.51
2022-08-16T18:40:27.457Z,99824.59
2022-08-16T18:42:54.816Z,99827.75
2022-08-16T18:45:22.214Z,99827.33
2022-08-16T18:47:49.225Z,99824.30
2022-08-16T18:50:16.994Z,99817.78
2022-08-16T18:53:02.209Z,99815.31
2022-08-16T18:55:30.247Z,99812.61
2022-08-16T18:58:00.880Z,99807.63
2022-08-16T19:00:30.288Z,99805.40
2022-08-16T19:03:24.680Z,99807.09
2022-08-16T19:05:56.236Z,99807.82
2022-08-16T19:08:23.389Z,99808.98
2022-08-16T19:10:51.464Z,99812.36
2022-08-16T19:13:24.565Z,99814.65
2022-08-16T19:15:54.100Z,99815.03
2022-08-16T19:18:22.068Z,99812.24
2022-08-16T19:20:49.735Z,99813.45
2022-08-16T19:23:19.313Z,99816.21
2022-08-16T19:25:52.794Z,99818.68
2022-08-16T19:28:51.473Z,99820.72
2022-08-16T19:31:18.990Z,99824.56
2022-08-16T19:33:54.242Z,99824.22
2022-08-16T19:36:35.352Z,99825.98
2022-08-16T19:39:08.687Z,99828.46
2022-08-16T19:41:54.598Z,99833.48
2022-08-16T19:44:22.708Z,99841.89
2022-08-16T19:46:50.360Z,99843.45
2022-08-16T19:49:17.606Z,99846.05
2022-08-16T19:51:45.703Z,99846.86
2022-08-16T19:54:12.622Z,99847.27
2022-08-16T19:56:39.470Z,99849.95
2022-08-16T19:59:40.399Z,99849.55
2022-08-16T20:01:53.852Z,99847.33
2022-08-16T20:04:22.537Z,99843.15
2022-08-16T20:06:50.103Z,99847.87
2022-08-16T20:09:17.156Z,99853.64
2022-08-16T20:11:48.105Z,99850.77
2022-08-16T20:14:24.876Z,99853.59
2022-08-16T20:16:55.107Z,99863.36
2022-08-16T20:19:22.062Z,99864.05
2022-08-16T20:21:49.009Z,99862.94
2022-08-16T20:24:33.663Z,99866.95
2022-08-16T20:27:02.882Z,99865.46
2022-08-16T20:29:29.940Z,99869.36
2022-08-16T20:31:57.084Z,99866.14
2022-08-16T20:34:23.933Z,99866.30
2022-08-16T20:36:50.987Z,99868.45
2022-08-16T20:39:17.940Z,99866.39
2022-08-16T20:41:45.200Z,99865.24
2022-08-16T20:44:12.659Z,99868.50
2022-08-16T20:46:40.066Z,99873.58
2022-08-16T20:49:08.845Z,99877.17
2022-08-16T20:51:46.974Z,99880.79
2022-08-16T20:54:18.171Z,99881.98
2022-08-16T20:56:45.150Z,99881.66
2022-08-16T20:59:12.069Z,99876.52
2022-08-16T21:01:49.783Z,99873.35
2022-08-16T21:04:19.393Z,99865.63
2022-08-16T21:06:52.958Z,99865.13
2022-08-16T21:09:32.864Z,99865.05
2022-08-16T21:12:06.519Z,99862.64
2022-08-16T21:14:34.683Z,99862.77
2022-08-16T21:17:03.026Z,99863.85
2022-08-16T21:19:30.389Z,99866.58
2022-08-16T21:21:57.640Z,99865.59
2022-08-16T21:24:24.796Z,99865.62
2022-08-16T21:26:56.230Z,99867.34
2022-08-16T21:29:27.911Z,99867.95
2022-08-16T21:32:14.683Z,99867.42
2022-08-16T21:34:41.785Z,99867.12
2022-08-16T21:37:08.835Z,99859.36
2022-08-16T21:39:35.863Z,99855.55
2022-08-16T21:42:02.870Z,99857.33
2022-08-16T21:44:38.496Z,99853.41
2022-08-16T21:47:05.853Z,99851.46
2022-08-16T21:49:36.777Z,99848.63
2022-08-16T21:52:05.222Z,99845.07
2022-08-16T21:54:32.343Z,99842.96
2022-08-16T21:56:59.291Z,99840.71
2022-08-16T21:59:26.243Z,99843.63
2022-08-16T22:01:53.245Z,99840.95
2022-08-16T22:04:37.483Z,99842.61
2022-08-16T22:07:06.584Z,99835.96
2022-08-16T22:09:33.517Z,99832.53
2022-08-16T22:12:00.404Z,99832.70
2022-08-16T22:14:27.247Z,99830.62
2022-08-16T22:16:54.202Z,99829.26
2022-08-16T22:19:23.479Z,99828.70
2022-08-16T22:21:50.525Z,99828.06
2022-08-16T22:24:17.384Z,99824.59
2022-08-16T22:26:44.740Z,99823.84
2022-08-16T22:29:12.616Z,99821.70
2022-08-16T22:31:39.899Z,99822.50
2022-08-16T22:34:08.057Z,99823.55
2022-08-16T22:36:35.114Z,99823.50
2022-08-16T22:39:04.372Z,99823.23
2022-08-16T22:41:32.399Z,99825.35
2022-08-16T22:44:00.369Z,99820.70
2022-08-16T22:46:27.329Z,99818.13
2022-08-16T22:48:54.280Z,99813.98
2022-08-16T22:51:22.463Z,99812.63
2022-08-16T22:53:49.427Z,99811.98
2022-08-16T22:56:17.721Z,99808.52
2022-08-16T22:58:45.611Z,99803.41
2022-08-16T23:01:13.075Z,99801.80
2022-08-16T23:03:40.205Z,99807.17
2022-08-16T23:06:07.372Z,99810.59
2022-08-16T23:08:39.075Z,99814.38
2022-08-16T23:11:21.289Z,99814.45
2022-08-16T23:13:54.262Z,99817.02
2022-08-16T23:16:33.604Z,99817.91
2022-08-16T23:19:06.043Z,99816.61
2022-08-16T23:21:33.325Z,99815.02
2022-08-16T23:24:00.377Z,99812.66
2022-08-16T23:26:45.407Z,99810.84
2022-08-16T23:29:23.114Z,99811.46
2022-08-16T23:31:59.869Z,99812.80
2022-08-16T23:34:28.170Z,99814.02
2022-08-16T23:36:55.437Z,99811.91
2022-08-16T23:39:22.657Z,99803.27
2022-08-16T23:41:49.706Z,99797.52
2022-08-16T23:44:44.174Z,99798.73
2022-08-16T23:47:06.264Z,99800.38
2022-08-16T23:49:59.292Z,99802.66
2022-08-16T23:52:53.765Z,99798.42
2022-08-16T23:55:07.868Z,99801.97
2022-08-16T23:57:34.819Z,99802.74
